Time,TemperatureF,DewpointF,PressureIn,WindDirection,WindDirectionDegrees,WindSpeedMPH,WindSpeedGustMPH,Humidity,HourlyPrecipIn,Conditions,Clouds,dailyrainin,SolarRadiationWatts/m^2,SoftwareType,DateUTC
2013-05-13 00:08:00,67.8,59.0,30.03,NNW,331,0.0,1.0,73,0.00,,,0.00,0,weatherlink.com 1.10,2013-05-13 04:08:00,
2013-05-13 00:23:00,67.2,58.0,30.03,NNW,331,0.0,1.0,72,0.00,,,0.00,0,weatherlink.com 1.10,2013-05-13 04:23:00,
2013-05-13 00:38:00,66.8,59.0,30.03,NNW,331,0.0,2.0,75,0.00,,,0.00,0,weatherlink.com 1.10,2013-05-13 04:38:00,
2013-05-13 00:53:00,66.3,58.0,30.03,NNW,331,0.0,0.0,74,0.00,,,0.00,0,weatherlink.com 1.10,2013-05-13 04:53:00,
2013-05-13 01:08:00,65.7,58.0,30.02,NNW,331,0.0,0.0,77,0.00,,,0.00,0,weatherlink.com 1.10,2013-05-13 05:08:00,
2013-05-13 01:23:00,65.6,59.0,30.01,NNW,331,0.0,0.0,78,0.00,,,0.00,0,weatherlink.com 1.10,2013-05-13 05:23:00,
2013-05-13 01:38:00,65.2,58.0,30.01,NNW,331,0.0,0.0,78,0.00,,,0.00,0,weatherlink.com 1.10,2013-05-13 05:38:00,
2013-05-13 01:53:00,65.1,57.0,30.00,NNW,331,0.0,1.0,76,0.00,,,0.00,0,weatherlink.com 1.10,2013-05-13 05:53:00,
2013-05-13 02:08:00,65.2,57.0,30.01,NNW,331,0.0,1.0,75,0.00,,,0.00,0,weatherlink.com 1.10,2013-05-13 06:08:00,
2013-05-13 02:23:00,65.3,56.0,30.01,NNW,331,0.0,4.0,72,0.00,,,0.00,0,weatherlink.com 1.10,2013-05-13 06:23:00,
2013-05-13 02:38:00,65.5,55.0,30.01,NNW,331,0.0,3.0,70,0.00,,,0.00,0,weatherlink.com 1.10,2013-05-13 06:38:00,
2013-05-13 02:53:00,65.4,55.0,30.01,NNW,331,0.0,0.0,69,0.00,,,0.00,0,weatherlink.com 1.10,2013-05-13 06:53:00,
2013-05-13 03:08:00,64.9,56.0,30.01,NNW,331,0.0,0.0,73,0.00,,,0.00,0,weatherlink.com 1.10,2013-05-13 07:08:00,
2013-05-13 03:23:00,64.3,57.0,30.01,NNW,331,0.0,0.0,76,0.00,,,0.00,0,weatherlink.com 1.10,2013-05-13 07:23:00,
2013-05-13 03:38:00,63.8,56.0,30.02,NNW,331,0.0,1.0,76,0.00,,,0.00,0,weatherlink.com 1.10,2013-05-13 07:38:00,
2013-05-13 03:53:00,63.6,56.0,30.02,NNW,331,0.0,2.0,75,0.00,,,0.00,0,weatherlink.com 1.10,2013-05-13 07:53:00,
2013-05-13 04:08:00,64.0,56.0,30.02,NNW,331,1.0,2.0,74,0.00,,,0.00,0,weatherlink.com 1.10,2013-05-13 08:08:00,
2013-05-13 04:23:00,64.7,55.0,30.02,NNW,331,0.0,5.0,72,0.00,,,0.00,0,weatherlink.com 1.10,2013-05-13 08:23:00,
2013-05-13 04:38:00,65.2,56.0,30.02,North,10,0.0,6.0,71,0.00,,,0.00,0,weatherlink.com 1.10,2013-05-13 08:38:00,
2013-05-13 04:53:00,65.6,56.0,30.03,NNW,347,1.0,8.0,71,0.00,,,0.00,0,weatherlink.com 1.10,2013-05-13 08:53:00,
2013-05-13 05:08:00,65.9,55.0,30.03,NNW,348,4.0,8.0,69,0.00,,,0.00,0,weatherlink.com 1.10,2013-05-13 09:08:00,
2013-05-13 05:23:00,66.0,55.0,30.03,NNW,339,4.0,10.0,67,0.00,,,0.00,0,weatherlink.com 1.10,2013-05-13 09:23:00,
2013-05-13 05:38:00,65.9,54.0,30.04,NNW,332,4.0,9.0,65,0.00,,,0.00,0,weatherlink.com 1.10,2013-05-13 09:38:00,
2013-05-13 05:53:00,65.7,52.0,30.04,NE,34,4.0,10.0,62,0.00,,,0.00,0,weatherlink.com 1.10,2013-05-13 09:53:00,
2013-05-13 06:08:00,65.4,51.0,30.04,North,5,4.0,8.0,59,0.00,,,0.00,0,weatherlink.com 1.10,2013-05-13 10:08:00,
2013-05-13 06:23:00,65.2,50.0,30.05,North,355,2.0,9.0,58,0.00,,,0.00,0,weatherlink.com 1.10,2013-05-13 10:23:00,
2013-05-13 06:38:00,64.8,49.0,30.06,NNW,338,3.0,10.0,56,0.00,,,0.00,0,weatherlink.com 1.10,2013-05-13 10:38:00,
2013-05-13 06:53:00,64.5,48.0,30.07,NNW,346,3.0,10.0,55,0.00,,,0.00,11,weatherlink.com 1.10,2013-05-13 10:53:00,
2013-05-13 07:08:00,64.2,48.0,30.07,NNE,22,2.0,5.0,55,0.00,,,0.00,32,weatherlink.com 1.10,2013-05-13 11:08:00,
2013-05-13 07:23:00,64.1,47.0,30.07,North,5,0.0,6.0,55,0.00,,,0.00,56,weatherlink.com 1.10,2013-05-13 11:23:00,
2013-05-13 07:39:00,64.0,47.0,30.08,NNW,336,0.0,8.0,55,0.00,,,0.00,81,weatherlink.com 1.10,2013-05-13 11:39:00,
2013-05-13 07:54:00,64.0,47.0,30.08,NNW,332,2.0,9.0,55,0.00,,,0.00,98,weatherlink.com 1.10,2013-05-13 11:54:00,
2013-05-13 08:09:00,64.1,47.0,30.10,NNW,333,6.0,6.0,55,0.00,,,0.00,97,weatherlink.com 1.10,2013-05-13 12:09:00,
2013-05-13 08:24:00,64.0,47.0,30.10,NNW,336,0.0,8.0,54,0.00,,,0.00,77,weatherlink.com 1.10,2013-05-13 12:24:00,
2013-05-13 08:39:00,63.8,46.0,30.10,NW,323,4.0,9.0,53,0.00,,,0.00,79,weatherlink.com 1.10,2013-05-13 12:39:00,
2013-05-13 08:54:00,63.8,46.0,30.11,NNE,14,5.0,10.0,52,0.00,,,0.00,130,weatherlink.com 1.10,2013-05-13 12:54:00,
2013-05-13 09:09:00,64.0,46.0,30.12,NNW,329,4.0,10.0,52,0.00,,,0.00,146,weatherlink.com 1.10,2013-05-13 13:09:00,
2013-05-13 09:24:00,64.1,46.0,30.12,NW,320,5.0,10.0,52,0.00,,,0.00,172,weatherlink.com 1.10,2013-05-13 13:24:00,
2013-05-13 09:39:00,64.8,47.0,30.13,NNW,338,5.0,9.0,52,0.00,,,0.00,404,weatherlink.com 1.10,2013-05-13 13:39:00,
2013-05-13 09:54:00,65.9,45.0,30.13,NW,325,5.0,10.0,48,0.00,,,0.00,318,weatherlink.com 1.10,2013-05-13 13:54:00,
2013-05-13 10:09:00,67.8,46.0,30.13,NNW,345,0.0,9.0,46,0.00,,,0.00,411,weatherlink.com 1.10,2013-05-13 14:09:00,
2013-05-13 10:24:00,69.3,46.0,30.13,NNW,333,8.0,10.0,43,0.00,,,0.00,360,weatherlink.com 1.10,2013-05-13 14:24:00,
2013-05-13 10:39:00,71.8,45.0,30.13,NNW,341,5.0,10.0,38,0.00,,,0.00,963,weatherlink.com 1.10,2013-05-13 14:39:00,
2013-05-13 10:54:00,73.0,43.0,30.13,NW,317,6.0,10.0,34,0.00,,,0.00,833,weatherlink.com 1.10,2013-05-13 14:54:00,
2013-05-13 11:09:00,73.5,43.0,30.14,NW,313,8.0,15.0,33,0.00,,,0.00,390,weatherlink.com 1.10,2013-05-13 15:09:00,
2013-05-13 11:24:00,73.1,42.0,30.14,North,355,1.0,14.0,33,0.00,,,0.00,925,weatherlink.com 1.10,2013-05-13 15:24:00,
2013-05-13 11:39:00,74.2,43.0,30.15,NNW,330,1.0,16.0,33,0.00,,,0.00,510,weatherlink.com 1.10,2013-05-13 15:39:00,
2013-05-13 11:54:00,73.8,44.0,30.15,NNE,24,0.0,14.0,35,0.00,,,0.00,1032,weatherlink.com 1.10,2013-05-13 15:54:00,
2013-05-13 12:09:00,74.4,46.0,30.15,NNW,340,5.0,15.0,36,0.00,,,0.00,998,weatherlink.com 1.10,2013-05-13 16:09:00,
2013-05-13 12:24:00,74.8,46.0,30.14,NW,319,0.0,14.0,36,0.00,,,0.00,998,weatherlink.com 1.10,2013-05-13 16:24:00,
2013-05-13 12:39:00,75.3,48.0,30.13,WNW,298,5.0,16.0,38,0.00,,,0.00,1013,weatherlink.com 1.10,2013-05-13 16:39:00,
2013-05-13 12:55:00,75.8,47.0,30.13,NNE,19,0.0,11.0,36,0.00,,,0.00,1027,weatherlink.com 1.10,2013-05-13 16:55:00,
2013-05-13 13:10:00,76.6,47.0,30.12,NNW,338,15.0,18.0,35,0.00,,,0.00,1037,weatherlink.com 1.10,2013-05-13 17:10:00,
2013-05-13 13:25:00,77.5,45.0,30.12,NNW,338,6.0,15.0,32,0.00,,,0.00,1041,weatherlink.com 1.10,2013-05-13 17:25:00,
2013-05-13 13:40:00,78.5,45.0,30.11,WNW,285,3.0,16.0,30,0.00,,,0.00,1055,weatherlink.com 1.10,2013-05-13 17:40:00,
2013-05-13 13:55:00,78.5,42.0,30.11,NW,311,6.0,16.0,27,0.00,,,0.00,1005,weatherlink.com 1.10,2013-05-13 17:55:00,
2013-05-13 14:10:00,79.7,43.0,30.11,North,350,9.0,16.0,27,0.00,,,0.00,1132,weatherlink.com 1.10,2013-05-13 18:10:00,
2013-05-13 14:25:00,79.1,41.0,30.11,NW,315,6.0,14.0,26,0.00,,,0.00,1049,weatherlink.com 1.10,2013-05-13 18:25:00,
2013-05-13 14:40:00,79.3,42.0,30.10,NW,325,9.0,15.0,27,0.00,,,0.00,1072,weatherlink.com 1.10,2013-05-13 18:40:00,
2013-05-13 14:55:00,79.5,43.0,30.10,North,349,9.0,15.0,27,0.00,,,0.00,1120,weatherlink.com 1.10,2013-05-13 18:55:00,
2013-05-13 15:10:00,79.1,40.0,30.10,WNW,285,2.0,13.0,25,0.00,,,0.00,436,weatherlink.com 1.10,2013-05-13 19:10:00,
2013-05-13 15:25:00,79.6,46.0,30.09,NW,311,2.0,13.0,30,0.00,,,0.00,912,weatherlink.com 1.10,2013-05-13 19:25:00,
2013-05-13 15:40:00,78.7,43.0,30.09,NW,314,4.0,13.0,28,0.00,,,0.00,902,weatherlink.com 1.10,2013-05-13 19:40:00,
2013-05-13 15:55:00,79.9,43.0,30.08,NNW,327,4.0,11.0,27,0.00,,,0.00,779,weatherlink.com 1.10,2013-05-13 19:55:00,
2013-05-13 16:10:00,79.4,42.0,30.08,NNW,348,3.0,16.0,26,0.00,,,0.00,740,weatherlink.com 1.10,2013-05-13 20:10:00,
2013-05-13 16:25:00,79.6,41.0,30.08,WNW,299,5.0,14.0,25,0.00,,,0.00,452,weatherlink.com 1.10,2013-05-13 20:25:00,
2013-05-13 16:40:00,78.6,42.0,30.08,North,360,8.0,14.0,27,0.00,,,0.00,496,weatherlink.com 1.10,2013-05-13 20:40:00,
2013-05-13 16:55:00,78.0,41.0,30.08,North,5,4.0,12.0,27,0.00,,,0.00,464,weatherlink.com 1.10,2013-05-13 20:55:00,
2013-05-13 17:10:00,77.8,41.0,30.08,NNW,327,6.0,11.0,27,0.00,,,0.00,325,weatherlink.com 1.10,2013-05-13 21:10:00,
2013-05-13 17:25:00,77.8,43.0,30.07,NNW,348,8.0,11.0,29,0.00,,,0.00,411,weatherlink.com 1.10,2013-05-13 21:25:00,
2013-05-13 17:40:00,78.2,42.0,30.08,NNW,342,10.0,15.0,27,0.00,,,0.00,578,weatherlink.com 1.10,2013-05-13 21:40:00,
2013-05-13 17:55:00,78.3,43.0,30.07,North,10,3.0,8.0,28,0.00,,,0.00,367,weatherlink.com 1.10,2013-05-13 21:55:00,
2013-05-13 18:10:00,78.5,41.0,30.07,North,355,4.0,12.0,26,0.00,,,0.00,392,weatherlink.com 1.10,2013-05-13 22:10:00,
2013-05-13 18:25:00,78.5,42.0,30.07,North,360,3.0,9.0,27,0.00,,,0.00,352,weatherlink.com 1.10,2013-05-13 22:25:00,
2013-05-13 18:40:00,77.7,52.0,30.08,NE,52,3.0,5.0,41,0.00,,,0.00,276,weatherlink.com 1.10,2013-05-13 22:40:00,
2013-05-13 18:55:00,76.2,54.0,30.07,ENE,72,0.0,8.0,46,0.00,,,0.00,209,weatherlink.com 1.10,2013-05-13 22:55:00,
2013-05-13 19:10:00,74.3,54.0,30.08,ENE,69,4.0,9.0,49,0.00,,,0.00,142,weatherlink.com 1.10,2013-05-13 23:10:00,
2013-05-13 19:25:00,72.4,53.0,30.08,East,97,0.0,4.0,51,0.00,,,0.00,30,weatherlink.com 1.10,2013-05-13 23:25:00,
2013-05-13 19:40:00,70.9,53.0,30.09,East,88,2.0,4.0,53,0.00,,,0.00,21,weatherlink.com 1.10,2013-05-13 23:40:00,
2013-05-13 19:55:00,69.6,55.0,30.09,SE,145,0.0,1.0,60,0.00,,,0.00,14,weatherlink.com 1.10,2013-05-13 23:55:00,
2013-05-13 20:10:00,68.3,55.0,30.09,SE,145,0.0,0.0,62,0.00,,,0.00,5,weatherlink.com 1.10,2013-05-14 00:10:00,
2013-05-13 20:25:00,66.8,55.0,30.10,SE,145,0.0,0.0,67,0.00,,,0.00,0,weatherlink.com 1.10,2013-05-14 00:25:00,
2013-05-13 20:40:00,65.0,55.0,30.11,SE,145,0.0,0.0,70,0.00,,,0.00,0,weatherlink.com 1.10,2013-05-14 00:40:00,
2013-05-13 20:55:00,63.4,54.0,30.12,SE,145,0.0,0.0,72,0.00,,,0.00,0,weatherlink.com 1.10,2013-05-14 00:55:00,
2013-05-13 21:10:00,62.2,54.0,30.12,SE,145,0.0,0.0,75,0.00,,,0.00,0,weatherlink.com 1.10,2013-05-14 01:10:00,
2013-05-13 21:25:00,60.9,54.0,30.12,SE,145,0.0,0.0,79,0.00,,,0.00,0,weatherlink.com 1.10,2013-05-14 01:25:00,
2013-05-13 21:40:00,59.8,54.0,30.13,SE,145,0.0,0.0,81,0.00,,,0.00,0,weatherlink.com 1.10,2013-05-14 01:40:00,
2013-05-13 21:55:00,58.8,54.0,30.14,SE,145,0.0,0.0,85,0.00,,,0.00,0,weatherlink.com 1.10,2013-05-14 01:55:00,
2013-05-13 22:10:00,58.4,55.0,30.14,SE,145,0.0,0.0,87,0.00,,,0.00,0,weatherlink.com 1.10,2013-05-14 02:10:00,
2013-05-13 22:25:00,58.1,55.0,30.14,SE,145,0.0,0.0,88,0.00,,,0.00,0,weatherlink.com 1.10,2013-05-14 02:25:00,
2013-05-13 22:40:00,57.9,55.0,30.14,SE,145,0.0,2.0,90,0.00,,,0.00,0,weatherlink.com 1.10,2013-05-14 02:40:00,
2013-05-13 22:55:00,57.7,55.0,30.15,SE,145,0.0,0.0,90,0.00,,,0.00,0,weatherlink.com 1.10,2013-05-14 02:55:00,
2013-05-13 23:10:00,57.2,55.0,30.15,SE,145,0.0,0.0,92,0.00,,,0.00,0,weatherlink.com 1.10,2013-05-14 03:10:00,
2013-05-13 23:25:00,57.1,55.0,30.15,SE,145,0.0,0.0,93,0.00,,,0.00,0,weatherlink.com 1.10,2013-05-14 03:25:00,
2013-05-13 23:40:00,56.9,55.0,30.15,SE,145,0.0,0.0,93,0.00,,,0.00,0,weatherlink.com 1.10,2013-05-14 03:40:00,
2013-05-13 23:56:00,56.5,55.0,30.15,SE,145,0.0,0.0,93,0.00,,,0.00,0,weatherlink.com 1.10,2013-05-14 03:56:00,